sensor_id;sensor_type;location;lat;lon;timestamp;temperature;humidity
2867;DHT22;1441;48.886;8.728;2024-01-30T00:01:57;4.00;99.90
2867;DHT22;1441;48.886;8.728;2024-01-30T00:04:23;4.10;99.90
2867;DHT22;1441;48.886;8.728;2024-01-30T00:06:48;4.10;99.60
2867;DHT22;1441;48.886;8.728;2024-01-30T00:09:14;4.00;99.90
2867;DHT22;1441;48.886;8.728;2024-01-30T00:11:40;4.00;99.90
2867;DHT22;1441;48.886;8.728;2024-01-30T00:14:06;4.00;99.90
2867;DHT22;1441;48.886;8.728;2024-01-30T00:16:31;4.10;99.70
2867;DHT22;1441;48.886;8.728;2024-01-30T00:18:57;4.10;99.90
2867;DHT22;1441;48.886;8.728;2024-01-30T00:21:23;3.90;99.90
2867;DHT22;1441;48.886;8.728;2024-01-30T00:23:49;3.90;99.90
2867;DHT22;1441;48.886;8.728;2024-01-30T00:26:14;3.80;99.90
2867;DHT22;1441;48.886;8.728;2024-01-30T00:28:43;3.90;99.90
2867;DHT22;1441;48.886;8.728;2024-01-30T00:31:09;3.90;99.90
2867;DHT22;1441;48.886;8.728;2024-01-30T00:33:38;3.90;99.90
2867;DHT22;1441;48.886;8.728;2024-01-30T00:36:05;3.90;99.90
2867;DHT22;1441;48.886;8.728;2024-01-30T00:38:31;4.00;99.90
2867;DHT22;1441;48.886;8.728;2024-01-30T00:40:57;3.90;99.90
2867;DHT22;1441;48.886;8.728;2024-01-30T00:43:22;3.90;99.90
2867;DHT22;1441;48.886;8.728;2024-01-30T00:45:50;3.80;99.90
2867;DHT22;1441;48.886;8.728;2024-01-30T00:48:17;3.80;99.90
2867;DHT22;1441;48.886;8.728;2024-01-30T00:50:43;3.80;99.90
2867;DHT22;1441;48.886;8.728;2024-01-30T00:53:08;3.70;99.90
2867;DHT22;1441;48.886;8.728;2024-01-30T00:55:34;3.70;99.90
2867;DHT22;1441;48.886;8.728;2024-01-30T00:57:59;3.70;99.90
2867;DHT22;1441;48.886;8.728;2024-01-30T01:00:25;3.70;99.90
2867;DHT22;1441;48.886;8.728;2024-01-30T01:02:57;3.60;99.90
2867;DHT22;1441;48.886;8.728;2024-01-30T01:05:23;3.90;99.90
2867;DHT22;1441;48.886;8.728;2024-01-30T01:07:48;3.90;99.90
2867;DHT22;1441;48.886;8.728;2024-01-30T01:10:15;3.80;99.90
2867;DHT22;1441;48.886;8.728;2024-01-30T01:12:41;3.70;99.90
2867;DHT22;1441;48.886;8.728;2024-01-30T01:15:07;3.60;99.90
2867;DHT22;1441;48.886;8.728;2024-01-30T01:17:38;3.60;99.90
2867;DHT22;1441;48.886;8.728;2024-01-30T01:20:04;3.60;99.90
2867;DHT22;1441;48.886;8.728;2024-01-30T01:22:34;3.60;99.90
2867;DHT22;1441;48.886;8.728;2024-01-30T01:25:00;3.50;99.90
2867;DHT22;1441;48.886;8.728;2024-01-30T01:27:26;3.60;99.90
2867;DHT22;1441;48.886;8.728;2024-01-30T01:29:52;3.60;99.90
2867;DHT22;1441;48.886;8.728;2024-01-30T01:32:18;3.80;99.90
2867;DHT22;1441;48.886;8.728;2024-01-30T01:34:43;3.80;99.90
2867;DHT22;1441;48.886;8.728;2024-01-30T01:37:09;3.90;99.90
2867;DHT22;1441;48.886;8.728;2024-01-30T01:39:35;3.90;99.90
2867;DHT22;1441;48.886;8.728;2024-01-30T01:42:00;3.80;99.90
2867;DHT22;1441;48.886;8.728;2024-01-30T01:44:27;3.80;99.90
2867;DHT22;1441;48.886;8.728;2024-01-30T01:46:52;3.80;99.90
2867;DHT22;1441;48.886;8.728;2024-01-30T01:49:19;3.80;99.90
2867;DHT22;1441;48.886;8.728;2024-01-30T01:51:45;3.90;99.90
2867;DHT22;1441;48.886;8.728;2024-01-30T01:54:14;3.80;99.90
2867;DHT22;1441;48.886;8.728;2024-01-30T01:56:42;3.90;99.80
2867;DHT22;1441;48.886;8.728;2024-01-30T01:59:08;3.70;99.90
2867;DHT22;1441;48.886;8.728;2024-01-30T02:01:37;3.50;99.90
2867;DHT22;1441;48.886;8.728;2024-01-30T02:04:04;3.40;99.90
2867;DHT22;1441;48.886;8.728;2024-01-30T02:06:30;3.60;99.90
2867;DHT22;1441;48.886;8.728;2024-01-30T02:08:56;3.60;99.90
2867;DHT22;1441;48.886;8.728;2024-01-30T02:11:22;3.60;99.90
2867;DHT22;1441;48.886;8.728;2024-01-30T02:13:48;3.60;99.90
2867;DHT22;1441;48.886;8.728;2024-01-30T02:16:14;3.70;99.90
2867;DHT22;1441;48.886;8.728;2024-01-30T02:18:39;3.60;99.90
2867;DHT22;1441;48.886;8.728;2024-01-30T02:21:10;3.70;99.90
2867;DHT22;1441;48.886;8.728;2024-01-30T02:23:36;3.80;99.90
2867;DHT22;1441;48.886;8.728;2024-01-30T02:26:03;3.60;99.90
2867;DHT22;1441;48.886;8.728;2024-01-30T02:28:28;3.80;99.90
2867;DHT22;1441;48.886;8.728;2024-01-30T02:30:54;3.90;99.50
2867;DHT22;1441;48.886;8.728;2024-01-30T02:33:20;3.60;99.90
2867;DHT22;1441;48.886;8.728;2024-01-30T02:35:48;3.30;99.90
2867;DHT22;1441;48.886;8.728;2024-01-30T02:38:15;3.20;99.90
2867;DHT22;1441;48.886;8.728;2024-01-30T02:40:41;3.30;99.90
2867;DHT22;1441;48.886;8.728;2024-01-30T02:43:06;3.20;99.90
2867;DHT22;1441;48.886;8.728;2024-01-30T02:45:32;3.20;99.90
2867;DHT22;1441;48.886;8.728;2024-01-30T02:47:57;3.10;99.90
2867;DHT22;1441;48.886;8.728;2024-01-30T02:50:23;3.10;99.90
2867;DHT22;1441;48.886;8.728;2024-01-30T02:52:48;3.10;99.90
2867;DHT22;1441;48.886;8.728;2024-01-30T02:55:14;3.10;99.90
2867;DHT22;1441;48.886;8.728;2024-01-30T02:57:42;3.00;99.90
2867;DHT22;1441;48.886;8.728;2024-01-30T03:00:08;3.00;99.90
2867;DHT22;1441;48.886;8.728;2024-01-30T03:02:35;3.00;99.90
2867;DHT22;1441;48.886;8.728;2024-01-30T03:05:01;2.90;99.90
2867;DHT22;1441;48.886;8.728;2024-01-30T03:07:26;2.90;99.90
2867;DHT22;1441;48.886;8.728;2024-01-30T03:09:52;2.80;99.90
2867;DHT22;1441;48.886;8.728;2024-01-30T03:12:18;2.80;99.90
2867;DHT22;1441;48.886;8.728;2024-01-30T03:14:43;2.90;99.90
2867;DHT22;1441;48.886;8.728;2024-01-30T03:17:09;2.90;99.90
2867;DHT22;1441;48.886;8.728;2024-01-30T03:19:34;2.80;99.90
2867;DHT22;1441;48.886;8.728;2024-01-30T03:22:00;2.70;99.90
2867;DHT22;1441;48.886;8.728;2024-01-30T03:24:26;2.80;99.90
2867;DHT22;1441;48.886;8.728;2024-01-30T03:26:51;2.80;99.90
2867;DHT22;1441;48.886;8.728;2024-01-30T03:29:17;2.90;99.90
2867;DHT22;1441;48.886;8.728;2024-01-30T03:31:43;2.90;99.90
2867;DHT22;1441;48.886;8.728;2024-01-30T03:34:08;3.00;99.90
2867;DHT22;1441;48.886;8.728;2024-01-30T03:36:34;3.00;99.90
2867;DHT22;1441;48.886;8.728;2024-01-30T03:39:00;3.10;99.90
2867;DHT22;1441;48.886;8.728;2024-01-30T03:41:25;3.10;99.90
2867;DHT22;1441;48.886;8.728;2024-01-30T03:43:51;3.10;99.90
2867;DHT22;1441;48.886;8.728;2024-01-30T03:46:17;3.10;99.90
2867;DHT22;1441;48.886;8.728;2024-01-30T03:48:42;3.20;99.90
2867;DHT22;1441;48.886;8.728;2024-01-30T03:51:08;3.20;99.90
2867;DHT22;1441;48.886;8.728;2024-01-30T03:53:34;3.30;99.90
2867;DHT22;1441;48.886;8.728;2024-01-30T03:56:00;3.30;99.90
2867;DHT22;1441;48.886;8.728;2024-01-30T03:58:26;3.00;99.90
2867;DHT22;1441;48.886;8.728;2024-01-30T04:00:51;2.80;99.90
2867;DHT22;1441;48.886;8.728;2024-01-30T04:03:17;2.80;99.90
2867;DHT22;1441;48.886;8.728;2024-01-30T04:05:43;3.00;99.90
2867;DHT22;1441;48.886;8.728;2024-01-30T04:08:09;3.20;99.90
2867;DHT22;1441;48.886;8.728;2024-01-30T04:10:34;3.00;99.90
2867;DHT22;1441;48.886;8.728;2024-01-30T04:13:00;2.90;99.90
2867;DHT22;1441;48.886;8.728;2024-01-30T04:15:25;2.90;99.90
2867;DHT22;1441;48.886;8.728;2024-01-30T04:17:51;3.00;99.90
2867;DHT22;1441;48.886;8.728;2024-01-30T04:20:17;2.90;99.90
2867;DHT22;1441;48.886;8.728;2024-01-30T04:22:46;2.80;99.90
2867;DHT22;1441;48.886;8.728;2024-01-30T04:25:13;2.90;99.90
2867;DHT22;1441;48.886;8.728;2024-01-30T04:27:39;2.80;99.90
2867;DHT22;1441;48.886;8.728;2024-01-30T04:30:05;2.70;99.90
2867;DHT22;1441;48.886;8.728;2024-01-30T04:32:31;2.70;99.90
2867;DHT22;1441;48.886;8.728;2024-01-30T04:34:57;2.80;99.90
2867;DHT22;1441;48.886;8.728;2024-01-30T04:37:23;2.80;99.90
2867;DHT22;1441;48.886;8.728;2024-01-30T04:39:48;2.70;99.90
2867;DHT22;1441;48.886;8.728;2024-01-30T04:42:14;2.70;99.90
2867;DHT22;1441;48.886;8.728;2024-01-30T04:44:40;2.60;99.90
2867;DHT22;1441;48.886;8.728;2024-01-30T04:47:05;2.50;99.90
2867;DHT22;1441;48.886;8.728;2024-01-30T04:49:33;2.60;99.90
2867;DHT22;1441;48.886;8.728;2024-01-30T04:51:59;2.50;99.90
2867;DHT22;1441;48.886;8.728;2024-01-30T04:54:24;2.50;99.90
2867;DHT22;1441;48.886;8.728;2024-01-30T04:56:50;2.50;99.90
2867;DHT22;1441;48.886;8.728;2024-01-30T04:59:15;2.50;99.90
2867;DHT22;1441;48.886;8.728;2024-01-30T05:01:41;2.40;99.90
2867;DHT22;1441;48.886;8.728;2024-01-30T05:04:09;2.50;99.90
2867;DHT22;1441;48.886;8.728;2024-01-30T05:06:35;2.70;99.90
2867;DHT22;1441;48.886;8.728;2024-01-30T05:09:01;2.70;99.90
2867;DHT22;1441;48.886;8.728;2024-01-30T05:11:26;2.70;99.90
2867;DHT22;1441;48.886;8.728;2024-01-30T05:13:52;2.60;99.90
2867;DHT22;1441;48.886;8.728;2024-01-30T05:16:18;2.50;99.90
2867;DHT22;1441;48.886;8.728;2024-01-30T05:18:43;2.40;99.90
2867;DHT22;1441;48.886;8.728;2024-01-30T05:21:10;2.50;99.90
2867;DHT22;1441;48.886;8.728;2024-01-30T05:23:36;2.50;99.90
2867;DHT22;1441;48.886;8.728;2024-01-30T05:26:01;2.40;99.90
2867;DHT22;1441;48.886;8.728;2024-01-30T05:28:30;2.40;99.90
2867;DHT22;1441;48.886;8.728;2024-01-30T05:30:56;2.30;99.90
2867;DHT22;1441;48.886;8.728;2024-01-30T05:33:22;2.30;99.90
2867;DHT22;1441;48.886;8.728;2024-01-30T05:35:47;2.20;99.90
2867;DHT22;1441;48.886;8.728;2024-01-30T05:38:15;2.40;99.90
2867;DHT22;1441;48.886;8.728;2024-01-30T05:40:41;2.50;99.90
2867;DHT22;1441;48.886;8.728;2024-01-30T05:43:06;2.50;99.90
2867;DHT22;1441;48.886;8.728;2024-01-30T05:45:33;2.40;99.90
2867;DHT22;1441;48.886;8.728;2024-01-30T05:47:59;2.40;99.90
2867;DHT22;1441;48.886;8.728;2024-01-30T05:50:25;2.50;99.90
2867;DHT22;1441;48.886;8.728;2024-01-30T05:52:51;2.30;99.90
2867;DHT22;1441;48.886;8.728;2024-01-30T05:55:19;2.20;99.90
2867;DHT22;1441;48.886;8.728;2024-01-30T05:57:45;2.40;99.90
2867;DHT22;1441;48.886;8.728;2024-01-30T06:00:11;2.40;99.90
2867;DHT22;1441;48.886;8.728;2024-01-30T06:02:36;2.50;99.90
2867;DHT22;1441;48.886;8.728;2024-01-30T06:05:02;2.50;99.90
2867;DHT22;1441;48.886;8.728;2024-01-30T06:07:27;2.50;99.90
2867;DHT22;1441;48.886;8.728;2024-01-30T06:09:53;2.50;99.90
2867;DHT22;1441;48.886;8.728;2024-01-30T06:12:18;2.60;99.90
2867;DHT22;1441;48.886;8.728;2024-01-30T06:14:44;2.70;99.90
2867;DHT22;1441;48.886;8.728;2024-01-30T06:17:10;2.50;99.90
2867;DHT22;1441;48.886;8.728;2024-01-30T06:19:37;2.60;99.90
2867;DHT22;1441;48.886;8.728;2024-01-30T06:22:04;2.50;99.90
2867;DHT22;1441;48.886;8.728;2024-01-30T06:24:29;2.40;99.90
2867;DHT22;1441;48.886;8.728;2024-01-30T06:26:55;2.30;99.90
2867;DHT22;1441;48.886;8.728;2024-01-30T06:29:20;2.30;99.90
2867;DHT22;1441;48.886;8.728;2024-01-30T06:31:46;2.30;99.90
2867;DHT22;1441;48.886;8.728;2024-01-30T06:34:12;2.20;99.90
2867;DHT22;1441;48.886;8.728;2024-01-30T06:36:37;2.20;99.90
2867;DHT22;1441;48.886;8.728;2024-01-30T06:39:03;2.20;99.90
2867;DHT22;1441;48.886;8.728;2024-01-30T06:41:29;2.30;99.90
2867;DHT22;1441;48.886;8.728;2024-01-30T06:43:55;2.40;99.90
2867;DHT22;1441;48.886;8.728;2024-01-30T06:46:21;2.30;99.90
2867;DHT22;1441;48.886;8.728;2024-01-30T06:48:48;2.20;99.90
2867;DHT22;1441;48.886;8.728;2024-01-30T06:51:13;2.10;99.90
2867;DHT22;1441;48.886;8.728;2024-01-30T06:53:39;2.10;99.90
2867;DHT22;1441;48.886;8.728;2024-01-30T06:56:05;2.10;99.90
2867;DHT22;1441;48.886;8.728;2024-01-30T06:58:31;2.20;99.90
2867;DHT22;1441;48.886;8.728;2024-01-30T07:00:57;2.30;99.90
2867;DHT22;1441;48.886;8.728;2024-01-30T07:03:23;2.30;99.90
2867;DHT22;1441;48.886;8.728;2024-01-30T07:05:48;2.30;99.90
2867;DHT22;1441;48.886;8.728;2024-01-30T07:08:15;2.30;99.90
2867;DHT22;1441;48.886;8.728;2024-01-30T07:10:45;2.50;99.90
2867;DHT22;1441;48.886;8.728;2024-01-30T07:13:11;2.40;99.90
2867;DHT22;1441;48.886;8.728;2024-01-30T07:15:37;2.50;99.90
2867;DHT22;1441;48.886;8.728;2024-01-30T07:18:03;2.40;99.90
2867;DHT22;1441;48.886;8.728;2024-01-30T07:20:30;2.30;99.90
2867;DHT22;1441;48.886;8.728;2024-01-30T07:23:00;2.50;99.90
2867;DHT22;1441;48.886;8.728;2024-01-30T07:25:26;2.40;99.90
2867;DHT22;1441;48.886;8.728;2024-01-30T07:27:52;2.50;99.90
2867;DHT22;1441;48.886;8.728;2024-01-30T07:30:19;2.60;99.90
2867;DHT22;1441;48.886;8.728;2024-01-30T07:32:44;2.50;99.90
2867;DHT22;1441;48.886;8.728;2024-01-30T07:35:10;2.40;99.90
2867;DHT22;1441;48.886;8.728;2024-01-30T07:37:36;2.70;99.90
2867;DHT22;1441;48.886;8.728;2024-01-30T07:40:02;2.60;99.90
2867;DHT22;1441;48.886;8.728;2024-01-30T07:42:28;2.80;99.90
2867;DHT22;1441;48.886;8.728;2024-01-30T07:44:54;3.00;99.90
2867;DHT22;1441;48.886;8.728;2024-01-30T07:47:19;3.00;99.90
2867;DHT22;1441;48.886;8.728;2024-01-30T07:49:45;3.00;99.90
2867;DHT22;1441;48.886;8.728;2024-01-30T07:52:10;2.90;99.90
2867;DHT22;1441;48.886;8.728;2024-01-30T07:54:48;2.90;99.90
2867;DHT22;1441;48.886;8.728;2024-01-30T07:57:14;2.90;99.90
2867;DHT22;1441;48.886;8.728;2024-01-30T07:59:42;3.00;99.90
2867;DHT22;1441;48.886;8.728;2024-01-30T08:02:09;3.10;99.90
2867;DHT22;1441;48.886;8.728;2024-01-30T08:04:35;3.20;99.90
2867;DHT22;1441;48.886;8.728;2024-01-30T08:07:00;3.20;99.90
2867;DHT22;1441;48.886;8.728;2024-01-30T08:09:26;3.30;99.90
2867;DHT22;1441;48.886;8.728;2024-01-30T08:11:51;3.60;99.90
2867;DHT22;1441;48.886;8.728;2024-01-30T08:14:18;3.50;99.90
2867;DHT22;1441;48.886;8.728;2024-01-30T08:16:43;3.60;99.90
2867;DHT22;1441;48.886;8.728;2024-01-30T08:19:09;3.50;99.90
2867;DHT22;1441;48.886;8.728;2024-01-30T08:21:34;3.50;99.90
2867;DHT22;1441;48.886;8.728;2024-01-30T08:24:03;3.50;99.90
2867;DHT22;1441;48.886;8.728;2024-01-30T08:26:30;3.60;99.90
2867;DHT22;1441;48.886;8.728;2024-01-30T08:28:55;3.80;99.90
2867;DHT22;1441;48.886;8.728;2024-01-30T08:31:21;3.90;99.90
2867;DHT22;1441;48.886;8.728;2024-01-30T08:33:46;3.90;99.90
2867;DHT22;1441;48.886;8.728;2024-01-30T08:36:12;4.20;99.90
2867;DHT22;1441;48.886;8.728;2024-01-30T08:38:37;4.20;99.90
2867;DHT22;1441;48.886;8.728;2024-01-30T08:41:03;4.20;99.90
2867;DHT22;1441;48.886;8.728;2024-01-30T08:43:28;4.20;99.90
2867;DHT22;1441;48.886;8.728;2024-01-30T08:45:54;4.30;99.90
2867;DHT22;1441;48.886;8.728;2024-01-30T08:48:19;4.30;99.90
2867;DHT22;1441;48.886;8.728;2024-01-30T08:50:46;4.70;99.90
2867;DHT22;1441;48.886;8.728;2024-01-30T08:53:12;5.00;99.00
2867;DHT22;1441;48.886;8.728;2024-01-30T08:55:37;4.90;99.80
2867;DHT22;1441;48.886;8.728;2024-01-30T08:58:04;4.90;99.90
2867;DHT22;1441;48.886;8.728;2024-01-30T09:00:30;5.00;99.90
2867;DHT22;1441;48.886;8.728;2024-01-30T09:02:56;5.00;99.90
2867;DHT22;1441;48.886;8.728;2024-01-30T09:05:21;5.00;99.90
2867;DHT22;1441;48.886;8.728;2024-01-30T09:07:47;5.00;99.90
2867;DHT22;1441;48.886;8.728;2024-01-30T09:10:12;5.10;99.90
2867;DHT22;1441;48.886;8.728;2024-01-30T09:12:38;5.40;99.50
2867;DHT22;1441;48.886;8.728;2024-01-30T09:15:04;5.80;96.90
2867;DHT22;1441;48.886;8.728;2024-01-30T09:17:29;5.80;96.60
2867;DHT22;1441;48.886;8.728;2024-01-30T09:19:55;5.70;98.00
2867;DHT22;1441;48.886;8.728;2024-01-30T09:22:21;5.90;97.40
2867;DHT22;1441;48.886;8.728;2024-01-30T09:24:46;6.00;96.20
2867;DHT22;1441;48.886;8.728;2024-01-30T09:27:12;6.20;95.50
2867;DHT22;1441;48.886;8.728;2024-01-30T09:29:37;6.30;95.30
2867;DHT22;1441;48.886;8.728;2024-01-30T09:32:04;6.40;95.30
2867;DHT22;1441;48.886;8.728;2024-01-30T09:34:29;6.30;95.70
2867;DHT22;1441;48.886;8.728;2024-01-30T09:36:55;6.30;95.80
2867;DHT22;1441;48.886;8.728;2024-01-30T09:39:21;6.50;95.20
2867;DHT22;1441;48.886;8.728;2024-01-30T09:42:11;6.60;94.90
2867;DHT22;1441;48.886;8.728;2024-01-30T09:44:43;6.50;95.80
2867;DHT22;1441;48.886;8.728;2024-01-30T09:47:09;6.10;97.80
2867;DHT22;1441;48.886;8.728;2024-01-30T09:49:36;6.10;97.80
2867;DHT22;1441;48.886;8.728;2024-01-30T09:52:04;6.20;98.10
2867;DHT22;1441;48.886;8.728;2024-01-30T09:54:30;6.30;97.40
2867;DHT22;1441;48.886;8.728;2024-01-30T09:56:57;6.30;97.80
2867;DHT22;1441;48.886;8.728;2024-01-30T09:59:23;6.20;98.40
2867;DHT22;1441;48.886;8.728;2024-01-30T10:01:52;6.30;97.80
2867;DHT22;1441;48.886;8.728;2024-01-30T10:04:18;6.50;97.10
2867;DHT22;1441;48.886;8.728;2024-01-30T10:06:43;6.70;95.40
2867;DHT22;1441;48.886;8.728;2024-01-30T10:09:09;6.80;94.90
2867;DHT22;1441;48.886;8.728;2024-01-30T10:11:36;6.80;95.50
2867;DHT22;1441;48.886;8.728;2024-01-30T10:14:02;7.10;95.10
2867;DHT22;1441;48.886;8.728;2024-01-30T10:16:27;7.30;94.30
2867;DHT22;1441;48.886;8.728;2024-01-30T10:18:53;7.30;94.20
2867;DHT22;1441;48.886;8.728;2024-01-30T10:21:18;7.30;94.50
2867;DHT22;1441;48.886;8.728;2024-01-30T10:23:44;7.30;94.70
2867;DHT22;1441;48.886;8.728;2024-01-30T10:26:10;7.40;94.30
2867;DHT22;1441;48.886;8.728;2024-01-30T10:28:36;7.40;95.10
2867;DHT22;1441;48.886;8.728;2024-01-30T10:31:01;7.40;95.50
2867;DHT22;1441;48.886;8.728;2024-01-30T10:33:32;7.50;96.10
2867;DHT22;1441;48.886;8.728;2024-01-30T10:36:05;7.50;96.40
2867;DHT22;1441;48.886;8.728;2024-01-30T10:38:32;7.40;96.50
2867;DHT22;1441;48.886;8.728;2024-01-30T10:40:59;7.70;95.80
2867;DHT22;1441;48.886;8.728;2024-01-30T10:43:33;8.00;94.70
2867;DHT22;1441;48.886;8.728;2024-01-30T10:46:19;8.10;94.80
2867;DHT22;1441;48.886;8.728;2024-01-30T10:48:56;8.00;95.30
2867;DHT22;1441;48.886;8.728;2024-01-30T10:51:24;8.00;96.00
2867;DHT22;1441;48.886;8.728;2024-01-30T10:53:51;7.90;96.30
2867;DHT22;1441;48.886;8.728;2024-01-30T10:56:18;7.90;96.60
2867;DHT22;1441;48.886;8.728;2024-01-30T10:58:45;7.90;96.30
2867;DHT22;1441;48.886;8.728;2024-01-30T11:01:11;7.80;96.10
2867;DHT22;1441;48.886;8.728;2024-01-30T11:03:37;7.80;95.70
2867;DHT22;1441;48.886;8.728;2024-01-30T11:06:03;7.80;95.60
2867;DHT22;1441;48.886;8.728;2024-01-30T11:08:32;7.80;95.60
2867;DHT22;1441;48.886;8.728;2024-01-30T11:10:58;7.80;95.20
2867;DHT22;1441;48.886;8.728;2024-01-30T11:13:30;7.80;94.90
2867;DHT22;1441;48.886;8.728;2024-01-30T11:16:00;7.90;94.40
2867;DHT22;1441;48.886;8.728;2024-01-30T11:18:29;7.90;93.80
2867;DHT22;1441;48.886;8.728;2024-01-30T11:20:59;8.00;93.40
2867;DHT22;1441;48.886;8.728;2024-01-30T11:23:27;8.00;93.40
2867;DHT22;1441;48.886;8.728;2024-01-30T11:25:54;8.10;93.30
2867;DHT22;1441;48.886;8.728;2024-01-30T11:28:21;8.10;92.50
2867;DHT22;1441;48.886;8.728;2024-01-30T11:30:47;8.30;91.80
2867;DHT22;1441;48.886;8.728;2024-01-30T11:33:29;8.40;91.90
2867;DHT22;1441;48.886;8.728;2024-01-30T11:35:57;8.60;91.30
2867;DHT22;1441;48.886;8.728;2024-01-30T11:38:25;8.90;89.90
2867;DHT22;1441;48.886;8.728;2024-01-30T11:40:51;9.10;89.40
2867;DHT22;1441;48.886;8.728;2024-01-30T11:43:18;9.50;88.30
2867;DHT22;1441;48.886;8.728;2024-01-30T11:45:44;9.70;88.10
2867;DHT22;1441;48.886;8.728;2024-01-30T11:48:12;9.80;87.90
2867;DHT22;1441;48.886;8.728;2024-01-30T11:50:38;10.00;87.90
2867;DHT22;1441;48.886;8.728;2024-01-30T11:53:04;10.00;88.50
2867;DHT22;1441;48.886;8.728;2024-01-30T11:55:30;10.20;88.30
2867;DHT22;1441;48.886;8.728;2024-01-30T11:57:59;10.10;88.70
2867;DHT22;1441;48.886;8.728;2024-01-30T12:00:26;10.00;90.30
2867;DHT22;1441;48.886;8.728;2024-01-30T12:02:52;9.90;90.80
2867;DHT22;1441;48.886;8.728;2024-01-30T12:05:22;10.00;90.70
2867;DHT22;1441;48.886;8.728;2024-01-30T12:07:47;9.90;91.20
2867;DHT22;1441;48.886;8.728;2024-01-30T12:10:13;10.10;90.60
2867;DHT22;1441;48.886;8.728;2024-01-30T12:12:40;10.20;89.60
2867;DHT22;1441;48.886;8.728;2024-01-30T12:15:07;10.40;89.50
2867;DHT22;1441;48.886;8.728;2024-01-30T12:17:33;10.40;89.60
2867;DHT22;1441;48.886;8.728;2024-01-30T12:20:07;10.40;90.50
2867;DHT22;1441;48.886;8.728;2024-01-30T12:22:37;10.40;91.30
2867;DHT22;1441;48.886;8.728;2024-01-30T12:27:35;10.40;91.60
2867;DHT22;1441;48.886;8.728;2024-01-30T12:30:00;10.50;91.40
2867;DHT22;1441;48.886;8.728;2024-01-30T12:32:26;10.60;91.20
2867;DHT22;1441;48.886;8.728;2024-01-30T12:34:55;10.70;91.00
2867;DHT22;1441;48.886;8.728;2024-01-30T12:37:22;10.70;90.60
2867;DHT22;1441;48.886;8.728;2024-01-30T12:39:51;10.70;90.60
2867;DHT22;1441;48.886;8.728;2024-01-30T12:42:16;10.80;90.00
2867;DHT22;1441;48.886;8.728;2024-01-30T12:44:43;10.90;89.70
2867;DHT22;1441;48.886;8.728;2024-01-30T12:47:11;11.00;88.30
2867;DHT22;1441;48.886;8.728;2024-01-30T12:49:36;11.10;84.60
2867;DHT22;1441;48.886;8.728;2024-01-30T12:52:02;11.30;81.70
2867;DHT22;1441;48.886;8.728;2024-01-30T12:54:28;11.50;81.00
2867;DHT22;1441;48.886;8.728;2024-01-30T12:56:53;11.60;78.90
2867;DHT22;1441;48.886;8.728;2024-01-30T12:59:19;11.80;78.30
2867;DHT22;1441;48.886;8.728;2024-01-30T13:01:44;12.00;77.10
2867;DHT22;1441;48.886;8.728;2024-01-30T13:04:10;12.20;75.30
2867;DHT22;1441;48.886;8.728;2024-01-30T13:06:36;12.20;75.10
2867;DHT22;1441;48.886;8.728;2024-01-30T13:09:01;12.40;73.70
2867;DHT22;1441;48.886;8.728;2024-01-30T13:11:27;12.50;73.90
2867;DHT22;1441;48.886;8.728;2024-01-30T13:13:53;12.60;74.90
2867;DHT22;1441;48.886;8.728;2024-01-30T13:16:19;12.60;76.90
2867;DHT22;1441;48.886;8.728;2024-01-30T13:18:44;12.70;77.30
2867;DHT22;1441;48.886;8.728;2024-01-30T13:21:10;12.80;77.30
2867;DHT22;1441;48.886;8.728;2024-01-30T13:23:35;12.80;77.90
2867;DHT22;1441;48.886;8.728;2024-01-30T13:26:01;12.80;78.70
2867;DHT22;1441;48.886;8.728;2024-01-30T13:28:27;12.80;78.90
2867;DHT22;1441;48.886;8.728;2024-01-30T13:30:53;12.70;78.40
2867;DHT22;1441;48.886;8.728;2024-01-30T13:33:18;12.60;78.90
2867;DHT22;1441;48.886;8.728;2024-01-30T13:35:44;12.50;78.40
2867;DHT22;1441;48.886;8.728;2024-01-30T13:38:10;12.50;78.20
2867;DHT22;1441;48.886;8.728;2024-01-30T13:40:35;12.40;77.80
2867;DHT22;1441;48.886;8.728;2024-01-30T13:43:01;12.50;78.10
2867;DHT22;1441;48.886;8.728;2024-01-30T13:45:27;12.50;78.30
2867;DHT22;1441;48.886;8.728;2024-01-30T13:47:52;12.60;78.70
2867;DHT22;1441;48.886;8.728;2024-01-30T13:50:18;12.60;78.70
2867;DHT22;1441;48.886;8.728;2024-01-30T13:52:43;12.70;78.50
2867;DHT22;1441;48.886;8.728;2024-01-30T13:55:09;12.70;78.60
2867;DHT22;1441;48.886;8.728;2024-01-30T13:57:36;12.80;78.20
2867;DHT22;1441;48.886;8.728;2024-01-30T14:00:05;12.80;78.50
2867;DHT22;1441;48.886;8.728;2024-01-30T14:02:32;12.80;78.90
2867;DHT22;1441;48.886;8.728;2024-01-30T14:04:57;12.70;78.10
2867;DHT22;1441;48.886;8.728;2024-01-30T14:07:23;12.60;79.80
2867;DHT22;1441;48.886;8.728;2024-01-30T14:09:49;12.60;79.80
2867;DHT22;1441;48.886;8.728;2024-01-30T14:12:14;12.70;79.50
2867;DHT22;1441;48.886;8.728;2024-01-30T14:14:40;12.80;78.70
2867;DHT22;1441;48.886;8.728;2024-01-30T14:17:06;12.70;79.50
2867;DHT22;1441;48.886;8.728;2024-01-30T14:19:33;12.60;79.80
2867;DHT22;1441;48.886;8.728;2024-01-30T14:21:59;12.50;80.70
2867;DHT22;1441;48.886;8.728;2024-01-30T14:24:25;12.40;81.60
2867;DHT22;1441;48.886;8.728;2024-01-30T14:26:50;12.20;82.90
2867;DHT22;1441;48.886;8.728;2024-01-30T14:29:16;12.10;82.90
2867;DHT22;1441;48.886;8.728;2024-01-30T14:31:41;12.00;83.30
2867;DHT22;1441;48.886;8.728;2024-01-30T14:34:07;12.00;83.90
2867;DHT22;1441;48.886;8.728;2024-01-30T14:36:34;12.00;84.20
2867;DHT22;1441;48.886;8.728;2024-01-30T14:38:59;11.90;84.60
2867;DHT22;1441;48.886;8.728;2024-01-30T14:41:25;11.80;84.90
2867;DHT22;1441;48.886;8.728;2024-01-30T14:43:50;11.70;85.30
2867;DHT22;1441;48.886;8.728;2024-01-30T14:46:16;11.70;85.50
2867;DHT22;1441;48.886;8.728;2024-01-30T14:48:41;11.60;85.70
2867;DHT22;1441;48.886;8.728;2024-01-30T14:51:08;11.50;85.90
2867;DHT22;1441;48.886;8.728;2024-01-30T14:53:34;11.50;86.40
2867;DHT22;1441;48.886;8.728;2024-01-30T14:55:59;11.40;86.70
2867;DHT22;1441;48.886;8.728;2024-01-30T14:58:25;11.30;87.10
2867;DHT22;1441;48.886;8.728;2024-01-30T15:00:50;11.30;86.50
2867;DHT22;1441;48.886;8.728;2024-01-30T15:03:16;11.30;86.70
2867;DHT22;1441;48.886;8.728;2024-01-30T15:05:41;11.50;85.60
2867;DHT22;1441;48.886;8.728;2024-01-30T15:08:07;11.50;85.50
2867;DHT22;1441;48.886;8.728;2024-01-30T15:10:33;11.40;86.50
2867;DHT22;1441;48.886;8.728;2024-01-30T15:12:58;11.30;86.10
2867;DHT22;1441;48.886;8.728;2024-01-30T15:15:24;11.30;85.80
2867;DHT22;1441;48.886;8.728;2024-01-30T15:17:49;11.40;85.50
2867;DHT22;1441;48.886;8.728;2024-01-30T15:20:15;11.30;85.50
2867;DHT22;1441;48.886;8.728;2024-01-30T15:22:43;11.30;85.90
2867;DHT22;1441;48.886;8.728;2024-01-30T15:25:10;11.30;86.40
2867;DHT22;1441;48.886;8.728;2024-01-30T15:27:36;11.30;86.40
2867;DHT22;1441;48.886;8.728;2024-01-30T15:30:02;11.50;85.50
2867;DHT22;1441;48.886;8.728;2024-01-30T15:32:27;11.50;85.80
2867;DHT22;1441;48.886;8.728;2024-01-30T15:34:54;11.40;85.60
2867;DHT22;1441;48.886;8.728;2024-01-30T15:37:22;11.40;85.40
2867;DHT22;1441;48.886;8.728;2024-01-30T15:39:47;11.50;85.50
2867;DHT22;1441;48.886;8.728;2024-01-30T15:42:13;11.30;86.20
2867;DHT22;1441;48.886;8.728;2024-01-30T15:44:38;11.30;86.90
2867;DHT22;1441;48.886;8.728;2024-01-30T15:47:04;11.20;87.60
2867;DHT22;1441;48.886;8.728;2024-01-30T15:49:30;11.10;87.40
2867;DHT22;1441;48.886;8.728;2024-01-30T15:51:55;11.00;87.70
2867;DHT22;1441;48.886;8.728;2024-01-30T15:54:21;11.20;87.70
2867;DHT22;1441;48.886;8.728;2024-01-30T15:56:47;11.10;88.40
2867;DHT22;1441;48.886;8.728;2024-01-30T15:59:13;10.90;89.10
2867;DHT22;1441;48.886;8.728;2024-01-30T16:01:38;10.80;89.00
2867;DHT22;1441;48.886;8.728;2024-01-30T16:04:05;10.70;90.50
2867;DHT22;1441;48.886;8.728;2024-01-30T16:06:31;10.70;90.00
2867;DHT22;1441;48.886;8.728;2024-01-30T16:08:56;10.90;89.20
2867;DHT22;1441;48.886;8.728;2024-01-30T16:11:22;10.90;89.40